sensor_id;sensor_type;location;lat;lon;timestamp;temperature;humidity
36186;DHT22;22228;53.222;7.446;2024-03-22T00:02:51;9.60;99.90
36186;DHT22;22228;53.222;7.446;2024-03-22T00:06:13;9.60;99.90
36186;DHT22;22228;53.222;7.446;2024-03-22T00:09:32;9.60;99.90
36186;DHT22;22228;53.222;7.446;2024-03-22T00:12:53;9.60;99.90
36186;DHT22;22228;53.222;7.446;2024-03-22T00:16:12;9.60;99.90
36186;DHT22;22228;53.222;7.446;2024-03-22T00:19:34;9.60;99.90
36186;DHT22;22228;53.222;7.446;2024-03-22T00:22:56;9.60;99.90
36186;DHT22;22228;53.222;7.446;2024-03-22T00:26:16;9.60;99.90
36186;DHT22;22228;53.222;7.446;2024-03-22T00:29:36;9.60;99.90
36186;DHT22;22228;53.222;7.446;2024-03-22T00:32:55;9.60;99.90
36186;DHT22;22228;53.222;7.446;2024-03-22T00:36:16;9.60;99.90
36186;DHT22;22228;53.222;7.446;2024-03-22T00:39:37;9.60;99.90
36186;DHT22;22228;53.222;7.446;2024-03-22T00:42:58;9.60;99.90
36186;DHT22;22228;53.222;7.446;2024-03-22T00:46:18;9.60;99.90
36186;DHT22;22228;53.222;7.446;2024-03-22T00:49:39;9.60;99.90
36186;DHT22;22228;53.222;7.446;2024-03-22T00:52:59;9.60;99.90
36186;DHT22;22228;53.222;7.446;2024-03-22T00:56:22;9.60;99.90
36186;DHT22;22228;53.222;7.446;2024-03-22T00:59:43;9.70;99.90
36186;DHT22;22228;53.222;7.446;2024-03-22T01:03:02;9.70;99.90
36186;DHT22;22228;53.222;7.446;2024-03-22T01:06:23;9.70;99.90
36186;DHT22;22228;53.222;7.446;2024-03-22T01:09:44;9.70;99.90
36186;DHT22;22228;53.222;7.446;2024-03-22T01:13:06;9.70;99.90
36186;DHT22;22228;53.222;7.446;2024-03-22T04:01:07;10.30;99.90
36186;DHT22;22228;53.222;7.446;2024-03-22T04:04:27;10.20;99.90
36186;DHT22;22228;53.222;7.446;2024-03-22T04:07:47;10.20;99.90
36186;DHT22;22228;53.222;7.446;2024-03-22T04:11:08;10.20;99.90
36186;DHT22;22228;53.222;7.446;2024-03-22T04:14:27;10.20;99.90
36186;DHT22;22228;53.222;7.446;2024-03-22T04:17:49;10.20;99.90
36186;DHT22;22228;53.222;7.446;2024-03-22T04:21:08;10.30;99.90
36186;DHT22;22228;53.222;7.446;2024-03-22T04:24:29;10.30;99.90
36186;DHT22;22228;53.222;7.446;2024-03-22T04:27:49;10.30;99.90
36186;DHT22;22228;53.222;7.446;2024-03-22T04:31:09;10.30;99.90
36186;DHT22;22228;53.222;7.446;2024-03-22T04:34:31;10.40;99.90
36186;DHT22;22228;53.222;7.446;2024-03-22T04:37:51;10.40;99.90
36186;DHT22;22228;53.222;7.446;2024-03-22T04:41:11;10.40;99.90
36186;DHT22;22228;53.222;7.446;2024-03-22T04:44:32;10.50;99.90
36186;DHT22;22228;53.222;7.446;2024-03-22T04:47:52;10.50;99.90
36186;DHT22;22228;53.222;7.446;2024-03-22T04:51:14;10.50;99.90
36186;DHT22;22228;53.222;7.446;2024-03-22T04:54:35;10.50;99.90
36186;DHT22;22228;53.222;7.446;2024-03-22T04:57:55;10.60;99.90
36186;DHT22;22228;53.222;7.446;2024-03-22T05:01:16;10.50;99.90
36186;DHT22;22228;53.222;7.446;2024-03-22T05:04:35;10.50;99.90
36186;DHT22;22228;53.222;7.446;2024-03-22T05:07:58;10.50;99.90
36186;DHT22;22228;53.222;7.446;2024-03-22T05:11:17;10.60;99.90
36186;DHT22;22228;53.222;7.446;2024-03-22T05:14:37;10.60;99.90
36186;DHT22;22228;53.222;7.446;2024-03-22T05:17:57;10.60;99.90
36186;DHT22;22228;53.222;7.446;2024-03-22T05:21:18;10.60;99.90
36186;DHT22;22228;53.222;7.446;2024-03-22T05:24:40;10.60;99.90
36186;DHT22;22228;53.222;7.446;2024-03-22T05:28:00;10.60;99.90
36186;DHT22;22228;53.222;7.446;2024-03-22T05:31:20;10.50;99.90
36186;DHT22;22228;53.222;7.446;2024-03-22T05:34:40;10.60;99.90
36186;DHT22;22228;53.222;7.446;2024-03-22T05:38:00;10.60;99.90
36186;DHT22;22228;53.222;7.446;2024-03-22T05:41:22;10.60;99.90
36186;DHT22;22228;53.222;7.446;2024-03-22T05:44:43;10.60;99.90
36186;DHT22;22228;53.222;7.446;2024-03-22T05:48:04;10.60;99.90
36186;DHT22;22228;53.222;7.446;2024-03-22T05:51:25;10.60;99.90
36186;DHT22;22228;53.222;7.446;2024-03-22T05:54:44;10.60;99.90
36186;DHT22;22228;53.222;7.446;2024-03-22T05:58:06;10.60;99.90
36186;DHT22;22228;53.222;7.446;2024-03-22T06:01:28;10.60;99.90
36186;DHT22;22228;53.222;7.446;2024-03-22T06:04:48;10.70;99.90
36186;DHT22;22228;53.222;7.446;2024-03-22T06:08:08;10.70;99.90
36186;DHT22;22228;53.222;7.446;2024-03-22T06:11:28;10.70;99.90
36186;DHT22;22228;53.222;7.446;2024-03-22T06:14:50;10.70;99.90
36186;DHT22;22228;53.222;7.446;2024-03-22T06:18:10;10.70;99.90
36186;DHT22;22228;53.222;7.446;2024-03-22T06:21:29;10.60;99.90
36186;DHT22;22228;53.222;7.446;2024-03-22T06:24:50;10.50;99.90
36186;DHT22;22228;53.222;7.446;2024-03-22T06:28:09;10.40;99.90
36186;DHT22;22228;53.222;7.446;2024-03-22T06:31:31;10.30;99.90
36186;DHT22;22228;53.222;7.446;2024-03-22T06:34:50;10.20;99.90
36186;DHT22;22228;53.222;7.446;2024-03-22T06:38:11;10.20;99.90
36186;DHT22;22228;53.222;7.446;2024-03-22T06:41:30;10.20;99.90
36186;DHT22;22228;53.222;7.446;2024-03-22T06:44:50;10.10;99.90
36186;DHT22;22228;53.222;7.446;2024-03-22T06:48:11;10.10;99.90
36186;DHT22;22228;53.222;7.446;2024-03-22T06:51:33;10.00;99.90
36186;DHT22;22228;53.222;7.446;2024-03-22T06:54:52;10.00;99.90
36186;DHT22;22228;53.222;7.446;2024-03-22T06:58:13;10.00;99.90
36186;DHT22;22228;53.222;7.446;2024-03-22T07:01:34;10.00;99.90
36186;DHT22;22228;53.222;7.446;2024-03-22T07:04:56;10.00;99.90
36186;DHT22;22228;53.222;7.446;2024-03-22T07:08:16;9.90;99.90
36186;DHT22;22228;53.222;7.446;2024-03-22T07:11:37;9.90;99.90
36186;DHT22;22228;53.222;7.446;2024-03-22T07:14:56;9.90;99.90
36186;DHT22;22228;53.222;7.446;2024-03-22T07:18:16;9.90;99.90
36186;DHT22;22228;53.222;7.446;2024-03-22T07:21:38;9.90;99.90
36186;DHT22;22228;53.222;7.446;2024-03-22T07:24:58;9.90;99.90
36186;DHT22;22228;53.222;7.446;2024-03-22T07:28:18;9.90;99.90
36186;DHT22;22228;53.222;7.446;2024-03-22T07:31:38;9.80;99.90
36186;DHT22;22228;53.222;7.446;2024-03-22T07:34:58;9.90;99.90
36186;DHT22;22228;53.222;7.446;2024-03-22T07:38:20;9.90;99.90
36186;DHT22;22228;53.222;7.446;2024-03-22T07:41:40;10.00;99.90
36186;DHT22;22228;53.222;7.446;2024-03-22T07:44:59;10.00;99.90
36186;DHT22;22228;53.222;7.446;2024-03-22T07:48:20;10.00;99.90
36186;DHT22;22228;53.222;7.446;2024-03-22T07:51:40;10.00;99.90
36186;DHT22;22228;53.222;7.446;2024-03-22T07:55:02;10.00;99.90
36186;DHT22;22228;53.222;7.446;2024-03-22T07:58:23;10.00;99.90
36186;DHT22;22228;53.222;7.446;2024-03-22T08:01:43;10.00;99.90
36186;DHT22;22228;53.222;7.446;2024-03-22T08:05:04;10.00;99.90
36186;DHT22;22228;53.222;7.446;2024-03-22T08:08:24;10.00;99.90
36186;DHT22;22228;53.222;7.446;2024-03-22T08:11:46;10.00;99.90
36186;DHT22;22228;53.222;7.446;2024-03-22T08:15:06;10.00;99.90
36186;DHT22;22228;53.222;7.446;2024-03-22T08:18:27;9.90;99.90
36186;DHT22;22228;53.222;7.446;2024-03-22T08:21:46;9.90;99.90
36186;DHT22;22228;53.222;7.446;2024-03-22T08:25:07;9.80;99.90
36186;DHT22;22228;53.222;7.446;2024-03-22T08:28:29;9.80;99.90
36186;DHT22;22228;53.222;7.446;2024-03-22T08:31:48;9.80;99.90
36186;DHT22;22228;53.222;7.446;2024-03-22T08:35:09;9.70;99.90
36186;DHT22;22228;53.222;7.446;2024-03-22T08:38:29;9.70;99.90
36186;DHT22;22228;53.222;7.446;2024-03-22T08:41:49;9.80;99.90
36186;DHT22;22228;53.222;7.446;2024-03-22T08:45:11;9.80;99.90
36186;DHT22;22228;53.222;7.446;2024-03-22T08:48:31;9.80;99.90
36186;DHT22;22228;53.222;7.446;2024-03-22T08:51:52;9.80;99.90
36186;DHT22;22228;53.222;7.446;2024-03-22T08:55:12;9.90;99.90
36186;DHT22;22228;53.222;7.446;2024-03-22T08:58:32;9.90;99.90
36186;DHT22;22228;53.222;7.446;2024-03-22T09:01:53;9.80;99.90
36186;DHT22;22228;53.222;7.446;2024-03-22T09:05:14;9.90;99.90
36186;DHT22;22228;53.222;7.446;2024-03-22T09:08:34;9.90;99.90
36186;DHT22;22228;53.222;7.446;2024-03-22T09:11:54;9.90;99.90
36186;DHT22;22228;53.222;7.446;2024-03-22T09:15:15;9.90;99.90
36186;DHT22;22228;53.222;7.446;2024-03-22T09:18:36;9.80;99.90
36186;DHT22;22228;53.222;7.446;2024-03-22T09:21:56;9.90;99.90
36186;DHT22;22228;53.222;7.446;2024-03-22T09:25:15;9.90;99.90
36186;DHT22;22228;53.222;7.446;2024-03-22T09:28:36;9.90;99.90
36186;DHT22;22228;53.222;7.446;2024-03-22T09:31:56;9.90;99.90
36186;DHT22;22228;53.222;7.446;2024-03-22T09:35:18;9.90;99.90
36186;DHT22;22228;53.222;7.446;2024-03-22T09:38:37;10.00;99.90
36186;DHT22;22228;53.222;7.446;2024-03-22T09:41:58;10.00;99.90
36186;DHT22;22228;53.222;7.446;2024-03-22T09:45:19;10.00;99.90
36186;DHT22;22228;53.222;7.446;2024-03-22T09:48:40;10.00;99.90
36186;DHT22;22228;53.222;7.446;2024-03-22T09:52:03;10.00;99.90
36186;DHT22;22228;53.222;7.446;2024-03-22T09:55:24;10.00;99.90
36186;DHT22;22228;53.222;7.446;2024-03-22T09:58:43;10.00;99.90
36186;DHT22;22228;53.222;7.446;2024-03-22T10:02:04;10.00;99.90
36186;DHT22;22228;53.222;7.446;2024-03-22T10:05:29;10.00;99.90
36186;DHT22;22228;53.222;7.446;2024-03-22T10:08:50;10.00;99.90
36186;DHT22;22228;53.222;7.446;2024-03-22T10:12:10;10.00;99.90
36186;DHT22;22228;53.222;7.446;2024-03-22T10:15:31;10.00;99.90
36186;DHT22;22228;53.222;7.446;2024-03-22T10:18:52;10.00;99.90
36186;DHT22;22228;53.222;7.446;2024-03-22T10:22:16;10.10;99.90
36186;DHT22;22228;53.222;7.446;2024-03-22T10:25:52;10.00;99.90
36186;DHT22;22228;53.222;7.446;2024-03-22T10:29:14;10.10;99.90
36186;DHT22;22228;53.222;7.446;2024-03-22T10:32:37;10.10;99.90
36186;DHT22;22228;53.222;7.446;2024-03-22T10:35:59;10.00;99.90
36186;DHT22;22228;53.222;7.446;2024-03-22T10:39:20;10.10;99.90
36186;DHT22;22228;53.222;7.446;2024-03-22T10:42:43;10.10;99.90
36186;DHT22;22228;53.222;7.446;2024-03-22T10:46:14;10.10;99.90
36186;DHT22;22228;53.222;7.446;2024-03-22T10:49:36;10.10;99.90
36186;DHT22;22228;53.222;7.446;2024-03-22T10:53:04;10.10;99.90
36186;DHT22;22228;53.222;7.446;2024-03-22T11:00:34;10.10;99.90
36186;DHT22;22228;53.222;7.446;2024-03-22T11:04:08;10.10;99.90
36186;DHT22;22228;53.222;7.446;2024-03-22T11:07:30;10.10;99.90
36186;DHT22;22228;53.222;7.446;2024-03-22T11:10:51;10.10;99.90
36186;DHT22;22228;53.222;7.446;2024-03-22T11:18:31;10.10;99.90
36186;DHT22;22228;53.222;7.446;2024-03-22T11:21:58;10.10;99.90
36186;DHT22;22228;53.222;7.446;2024-03-22T11:25:34;10.00;99.90
36186;DHT22;22228;53.222;7.446;2024-03-22T11:28:55;10.10;99.90
36186;DHT22;22228;53.222;7.446;2024-03-22T11:32:16;10.20;99.90
36186;DHT22;22228;53.222;7.446;2024-03-22T11:35:59;10.20;99.90
36186;DHT22;22228;53.222;7.446;2024-03-22T11:39:21;10.20;99.90
36186;DHT22;22228;53.222;7.446;2024-03-22T11:43:10;10.30;99.90
36186;DHT22;22228;53.222;7.446;2024-03-22T11:46:36;10.30;99.90
36186;DHT22;22228;53.222;7.446;2024-03-22T11:50:05;10.20;99.90
36186;DHT22;22228;53.222;7.446;2024-03-22T11:57:48;10.20;99.90
36186;DHT22;22228;53.222;7.446;2024-03-22T12:01:25;10.20;99.90
36186;DHT22;22228;53.222;7.446;2024-03-22T12:04:46;10.10;99.90
36186;DHT22;22228;53.222;7.446;2024-03-22T12:08:06;10.20;99.90
36186;DHT22;22228;53.222;7.446;2024-03-22T12:11:30;10.20;99.90
36186;DHT22;22228;53.222;7.446;2024-03-22T12:14:54;10.10;99.90
36186;DHT22;22228;53.222;7.446;2024-03-22T12:18:17;10.10;99.90
36186;DHT22;22228;53.222;7.446;2024-03-22T12:21:41;10.10;99.90
36186;DHT22;22228;53.222;7.446;2024-03-22T12:25:01;10.10;99.90
36186;DHT22;22228;53.222;7.446;2024-03-22T12:28:23;10.10;99.90
36186;DHT22;22228;53.222;7.446;2024-03-22T12:31:45;10.00;99.90
36186;DHT22;22228;53.222;7.446;2024-03-22T12:35:08;9.90;99.90
36186;DHT22;22228;53.222;7.446;2024-03-22T12:39:02;9.80;99.90
36186;DHT22;22228;53.222;7.446;2024-03-22T12:46:58;10.00;99.90
36186;DHT22;22228;53.222;7.446;2024-03-22T12:50:28;10.00;99.90
36186;DHT22;22228;53.222;7.446;2024-03-22T12:53:52;9.90;99.90
36186;DHT22;22228;53.222;7.446;2024-03-22T12:57:34;9.80;99.90
36186;DHT22;22228;53.222;7.446;2024-03-22T13:01:29;9.80;99.90
36186;DHT22;22228;53.222;7.446;2024-03-22T13:04:54;9.70;99.90
36186;DHT22;22228;53.222;7.446;2024-03-22T13:08:47;9.60;99.90
36186;DHT22;22228;53.222;7.446;2024-03-22T13:12:11;9.50;99.90
36186;DHT22;22228;53.222;7.446;2024-03-22T13:15:40;9.40;99.90
36186;DHT22;22228;53.222;7.446;2024-03-22T13:18:59;9.40;99.90
36186;DHT22;22228;53.222;7.446;2024-03-22T13:22:25;9.30;99.90
36186;DHT22;22228;53.222;7.446;2024-03-22T13:25:49;9.30;99.90
36186;DHT22;22228;53.222;7.446;2024-03-22T13:29:22;9.30;99.90
36186;DHT22;22228;53.222;7.446;2024-03-22T13:32:42;9.40;99.90
36186;DHT22;22228;53.222;7.446;2024-03-22T13:36:19;9.30;99.90
36186;DHT22;22228;53.222;7.446;2024-03-22T13:39:42;9.40;99.90
36186;DHT22;22228;53.222;7.446;2024-03-22T13:43:12;9.40;99.90
36186;DHT22;22228;53.222;7.446;2024-03-22T13:46:53;9.50;99.90
36186;DHT22;22228;53.222;7.446;2024-03-22T13:50:14;9.50;99.90
36186;DHT22;22228;53.222;7.446;2024-03-22T13:53:36;9.50;99.90
36186;DHT22;22228;53.222;7.446;2024-03-22T13:57:07;9.40;99.90
36186;DHT22;22228;53.222;7.446;2024-03-22T14:00:27;9.40;99.90
36186;DHT22;22228;53.222;7.446;2024-03-22T14:08:12;9.40;99.90
36186;DHT22;22228;53.222;7.446;2024-03-22T14:11:54;9.50;99.90
36186;DHT22;22228;53.222;7.446;2024-03-22T14:15:37;9.60;99.90
36186;DHT22;22228;53.222;7.446;2024-03-22T14:18:59;9.50;99.90
36186;DHT22;22228;53.222;7.446;2024-03-22T14:22:47;9.60;99.90
36186;DHT22;22228;53.222;7.446;2024-03-22T14:26:07;9.60;99.90
36186;DHT22;22228;53.222;7.446;2024-03-22T14:29:29;9.50;99.90
36186;DHT22;22228;53.222;7.446;2024-03-22T14:32:50;9.50;99.90
36186;DHT22;22228;53.222;7.446;2024-03-22T14:36:15;9.50;99.90
36186;DHT22;22228;53.222;7.446;2024-03-22T14:40:36;9.60;99.90
36186;DHT22;22228;53.222;7.446;2024-03-22T14:43:57;9.60;99.90
36186;DHT22;22228;53.222;7.446;2024-03-22T14:51:17;9.50;99.90
36186;DHT22;22228;53.222;7.446;2024-03-22T14:58:13;9.40;99.90
36186;DHT22;22228;53.222;7.446;2024-03-22T15:01:34;9.40;99.90
36186;DHT22;22228;53.222;7.446;2024-03-22T15:04:56;9.40;99.90
36186;DHT22;22228;53.222;7.446;2024-03-22T15:08:19;9.20;99.90
36186;DHT22;22228;53.222;7.446;2024-03-22T15:11:38;9.30;99.90
36186;DHT22;22228;53.222;7.446;2024-03-22T15:14:59;9.40;99.90
36186;DHT22;22228;53.222;7.446;2024-03-22T15:18:20;9.50;99.90
36186;DHT22;22228;53.222;7.446;2024-03-22T15:21:41;9.50;99.90
36186;DHT22;22228;53.222;7.446;2024-03-22T15:25:04;9.50;99.90
36186;DHT22;22228;53.222;7.446;2024-03-22T15:28:26;9.30;99.90
36186;DHT22;22228;53.222;7.446;2024-03-22T15:31:49;9.20;99.90
36186;DHT22;22228;53.222;7.446;2024-03-22T15:35:12;9.10;99.90
36186;DHT22;22228;53.222;7.446;2024-03-22T15:38:32;9.00;99.90
36186;DHT22;22228;53.222;7.446;2024-03-22T15:42:02;8.90;99.90
36186;DHT22;22228;53.222;7.446;2024-03-22T15:45:23;8.80;99.90
36186;DHT22;22228;53.222;7.446;2024-03-22T15:48:50;8.80;99.90
36186;DHT22;22228;53.222;7.446;2024-03-22T15:52:14;8.80;99.90
36186;DHT22;22228;53.222;7.446;2024-03-22T15:55:34;8.80;99.90
36186;DHT22;22228;53.222;7.446;2024-03-22T15:58:58;8.80;99.90
36186;DHT22;22228;53.222;7.446;2024-03-22T16:02:18;8.80;99.90
36186;DHT22;22228;53.222;7.446;2024-03-22T16:05:48;8.90;99.90
36186;DHT22;22228;53.222;7.446;2024-03-22T16:09:10;8.90;99.90
36186;DHT22;22228;53.222;7.446;2024-03-22T16:12:30;8.90;99.90
36186;DHT22;22228;53.222;7.446;2024-03-22T16:15:52;8.90;99.90
36186;DHT22;22228;53.222;7.446;2024-03-22T16:19:21;8.90;99.90
36186;DHT22;22228;53.222;7.446;2024-03-22T16:22:43;8.90;99.90
36186;DHT22;22228;53.222;7.446;2024-03-22T16:26:03;8.90;99.90
36186;DHT22;22228;53.222;7.446;2024-03-22T16:29:24;8.90;99.90
36186;DHT22;22228;53.222;7.446;2024-03-22T16:32:44;8.80;99.90
36186;DHT22;22228;53.222;7.446;2024-03-22T16:36:05;8.80;99.90
36186;DHT22;22228;53.222;7.446;2024-03-22T16:39:25;8.70;99.90
36186;DHT22;22228;53.222;7.446;2024-03-22T16:42:46;8.60;99.90
36186;DHT22;22228;53.222;7.446;2024-03-22T16:46:09;8.50;99.90
36186;DHT22;22228;53.222;7.446;2024-03-22T16:49:31;8.50;99.90
36186;DHT22;22228;53.222;7.446;2024-03-22T16:52:51;8.50;99.90
36186;DHT22;22228;53.222;7.446;2024-03-22T16:56:19;8.50;99.90
36186;DHT22;22228;53.222;7.446;2024-03-22T16:59:42;8.50;99.90
36186;DHT22;22228;53.222;7.446;2024-03-22T17:03:03;8.50;99.90
36186;DHT22;22228;53.222;7.446;2024-03-22T17:06:27;8.50;99.90
36186;DHT22;22228;53.222;7.446;2024-03-22T17:09:48;8.50;99.90
36186;DHT22;22228;53.222;7.446;2024-03-22T17:13:09;8.40;99.90
36186;DHT22;22228;53.222;7.446;2024-03-22T17:16:29;8.40;99.90
36186;DHT22;22228;53.222;7.446;2024-03-22T17:19:49;8.40;99.90
36186;DHT22;22228;53.222;7.446;2024-03-22T17:23:10;8.30;99.90
36186;DHT22;22228;53.222;7.446;2024-03-22T17:26:31;8.30;99.90
36186;DHT22;22228;53.222;7.446;2024-03-22T17:29:51;8.30;99.90
36186;DHT22;22228;53.222;7.446;2024-03-22T17:33:12;8.30;99.90
36186;DHT22;22228;53.222;7.446;2024-03-22T17:36:33;8.30;99.90
36186;DHT22;22228;53.222;7.446;2024-03-22T17:39:54;8.20;99.90
36186;DHT22;22228;53.222;7.446;2024-03-22T17:43:14;8.20;99.90
36186;DHT22;22228;53.222;7.446;2024-03-22T17:47:07;8.20;99.90
36186;DHT22;22228;53.222;7.446;2024-03-22T17:50:34;8.20;99.90
36186;DHT22;22228;53.222;7.446;2024-03-22T17:54:20;8.20;99.90
36186;DHT22;22228;53.222;7.446;2024-03-22T17:57:43;8.20;99.90
36186;DHT22;22228;53.222;7.446;2024-03-22T18:05:46;8.20;99.90
36186;DHT22;22228;53.222;7.446;2024-03-22T18:09:09;8.20;99.90
36186;DHT22;22228;53.222;7.446;2024-03-22T18:12:30;8.30;99.90
36186;DHT22;22228;53.222;7.446;2024-03-22T18:15:51;8.30;99.90
36186;DHT22;22228;53.222;7.446;2024-03-22T18:19:11;8.30;99.90
36186;DHT22;22228;53.222;7.446;2024-03-22T18:22:31;8.30;99.90
36186;DHT22;22228;53.222;7.446;2024-03-22T18:25:52;8.20;99.90
36186;DHT22;22228;53.222;7.446;2024-03-22T18:29:15;8.20;99.90
36186;DHT22;22228;53.222;7.446;2024-03-22T18:32:37;8.20;99.90
36186;DHT22;22228;53.222;7.446;2024-03-22T18:35:57;8.10;99.90
36186;DHT22;22228;53.222;7.446;2024-03-22T18:39:18;8.10;99.90
36186;DHT22;22228;53.222;7.446;2024-03-22T18:42:38;8.00;99.90
36186;DHT22;22228;53.222;7.446;2024-03-22T18:45:59;8.00;99.90
36186;DHT22;22228;53.222;7.446;2024-03-22T18:49:19;7.90;99.90
36186;DHT22;22228;53.222;7.446;2024-03-22T18:52:40;7.90;99.90
36186;DHT22;22228;53.222;7.446;2024-03-22T18:56:01;7.90;99.90
36186;DHT22;22228;53.222;7.446;2024-03-22T18:59:22;7.90;99.90
36186;DHT22;22228;53.222;7.446;2024-03-22T19:02:42;7.80;99.90
36186;DHT22;22228;53.222;7.446;2024-03-22T19:06:04;7.80;99.90
36186;DHT22;22228;53.222;7.446;2024-03-22T19:09:25;7.80;99.90
36186;DHT22;22228;53.222;7.446;2024-03-22T19:12:45;7.80;99.90
36186;DHT22;22228;53.222;7.446;2024-03-22T19:16:06;7.80;99.90
36186;DHT22;22228;53.222;7.446;2024-03-22T19:19:26;7.80;99.90
36186;DHT22;22228;53.222;7.446;2024-03-22T19:22:48;7.80;99.90
36186;DHT22;22228;53.222;7.446;2024-03-22T19:26:28;7.80;99.90
36186;DHT22;22228;53.222;7.446;2024-03-22T19:29:49;7.70;99.90
36186;DHT22;22228;53.222;7.446;2024-03-22T19:33:08;7.70;99.90
36186;DHT22;22228;53.222;7.446;2024-03-22T19:36:29;7.70;99.90
36186;DHT22;22228;53.222;7.446;2024-03-22T19:39:51;7.70;99.90
36186;DHT22;22228;53.222;7.446;2024-03-22T19:43:10;7.70;99.90
36186;DHT22;22228;53.222;7.446;2024-03-22T19:46:31;7.70;99.90
36186;DHT22;22228;53.222;7.446;2024-03-22T19:49:51;7.70;99.90
36186;DHT22;22228;53.222;7.446;2024-03-22T19:53:11;7.70;99.90
36186;DHT22;22228;53.222;7.446;2024-03-22T19:56:32;7.70;99.90
36186;DHT22;22228;53.222;7.446;2024-03-22T19:59:53;7.70;99.90
36186;DHT22;22228;53.222;7.446;2024-03-22T20:03:12;7.70;99.90
36186;DHT22;22228;53.222;7.446;2024-03-22T20:06:33;7.60;99.90
36186;DHT22;22228;53.222;7.446;2024-03-22T20:09:54;7.60;99.90
36186;DHT22;22228;53.222;7.446;2024-03-22T20:13:15;7.60;99.90
36186;DHT22;22228;53.222;7.446;2024-03-22T20:16:36;7.60;99.90
36186;DHT22;22228;53.222;7.446;2024-03-22T20:19:55;7.60;99.90
36186;DHT22;22228;53.222;7.446;2024-03-22T20:23:16;7.50;99.90
36186;DHT22;22228;53.222;7.446;2024-03-22T20:26:37;7.50;99.90
36186;DHT22;22228;53.222;7.446;2024-03-22T20:29:59;7.60;99.90
36186;DHT22;22228;53.222;7.446;2024-03-22T20:33:19;7.50;99.90
36186;DHT22;22228;53.222;7.446;2024-03-22T20:36:38;7.50;99.90
